Main page
METAR-TAF:

METAR-TAF

Airports :

Belgrade Nikola Tesla Airport

Belgrade, Serbia

latitude: 44-49N, longitude: 020-17E, elevation: 96 m

Current weather observation

The report was made 26 minutes ago, at 01:30 UTC
Wind 7 kt from the West
Temperature 19°C
Humidity 94%
Pressure 1019 hPa
Visibility 10 km or more
no clouds below 1500 m and no cumulonimbus

METAR: LYBE 100130Z 28007KT CAVOK 19/18 Q1019 NOSIG

Time: 03:56 (01:56 UTC)

Forecast

The report was made 2 hours and 56 minutes ago, at 23:00 UTC
Forecast valid from 10 at 00 UTC to 10 at 24 UTC
Wind 8 kt from the West/Northwest
Visibility 10 km or more
no clouds below 1500 m and no cumulonimbus

TAF: LYBE 092300Z 1000/1024 30008KT CAVOK TX29/1013Z TN17/1003Z

Weather observations and forecasts of more than 4000 airports (METAR and TAF reports).

The available stations are represented by yellow and red dots on the map.

Hover mouse over dot to see the name of the station.

Then click to see weather observations and forecasts.

To change the map : click on the green buttons with a black cross to zoom in, on the green button with a dash to zoom out, or on the green arrows for adjacent maps.


METAR-TAF: